Time;durP1;ratioP1;P1;durP2;ratioP2;P2;SDS_P1;SDS_P2;PMS_P1;PMS_P2;Temp;Humidity;BMP_temperature;BMP_pressure;BME280_temperature;BME280_humidity;BME280_pressure;Samples;Min_cycle;Max_cycle;Signal;HPM_P1;HPM_P2
2022/09/17 00:01:09;;;;;;;15.05;2.80;;;10.00;99.90;;;;;;5034568;28;20037;-86
2022/09/17 00:03:35;;;;;;;22.42;2.65;;;10.00;99.90;;;;;;5033291;28;20110;-88
2022/09/17 00:06:03;;;;;;;18.95;2.47;;;10.00;99.90;;;;;;5033121;28;20050;-86
2022/09/17 00:08:29;;;;;;;23.00;3.20;;;10.00;99.90;;;;;;5033426;28;20080;-88
2022/09/17 00:10:55;;;;;;;15.98;2.17;;;10.10;99.90;;;;;;5032788;28;20061;-86
2022/09/17 00:13:21;;;;;;;16.88;2.30;;;10.10;99.90;;;;;;5049424;28;20049;-85
2022/09/17 00:15:47;;;;;;;17.85;2.53;;;10.10;99.90;;;;;;5031495;28;20495;-88
2022/09/17 00:18:14;;;;;;;20.70;2.50;;;10.10;99.90;;;;;;5034289;28;20051;-87
2022/09/17 00:20:42;;;;;;;19.05;3.30;;;10.10;99.90;;;;;;5034278;28;20041;-87
2022/09/17 00:23:08;;;;;;;22.95;2.88;;;10.10;99.90;;;;;;5034098;28;20075;-87
2022/09/17 00:25:38;;;;;;;18.50;2.70;;;10.20;99.90;;;;;;5033794;28;20049;-87
2022/09/17 00:28:03;;;;;;;17.05;2.67;;;10.10;99.90;;;;;;5034356;28;20045;-87
2022/09/17 00:30:29;;;;;;;16.98;2.63;;;10.10;99.90;;;;;;5032942;28;20053;-87
2022/09/17 00:32:56;;;;;;;22.23;3.33;;;10.10;99.90;;;;;;5033488;28;20041;-88
2022/09/17 00:35:26;;;;;;;23.77;3.28;;;10.10;99.90;;;;;;5016143;28;20063;-87
2022/09/17 00:37:52;;;;;;;21.80;4.13;;;10.10;99.90;;;;;;5034444;28;20048;-87
2022/09/17 00:40:19;;;;;;;18.92;3.03;;;10.10;99.90;;;;;;5034577;28;20079;-91
2022/09/17 00:42:45;;;;;;;20.25;2.85;;;10.10;99.90;;;;;;5031978;28;20049;-87
2022/09/17 00:45:11;;;;;;;22.17;2.53;;;10.20;99.90;;;;;;5028354;28;20045;-85
2022/09/17 00:47:57;;;;;;;20.77;2.38;;;10.20;99.90;;;;;;5034489;28;20127;-89
2022/09/17 00:50:43;;;;;;;24.00;2.67;;;10.20;99.90;;;;;;5047676;28;20395;-87
2022/09/17 00:53:21;;;;;;;22.38;2.88;;;10.20;99.90;;;;;;5056633;28;20068;-87
2022/09/17 00:55:57;;;;;;;18.25;2.65;;;10.20;99.90;;;;;;5033627;28;20041;-87
2022/09/17 00:58:25;;;;;;;21.90;2.83;;;10.20;99.90;;;;;;5045937;28;20041;-87
2022/09/17 01:00:52;;;;;;;20.58;2.58;;;10.20;99.90;;;;;;5033522;28;20116;-87
2022/09/17 01:03:18;;;;;;;20.48;2.85;;;10.20;99.90;;;;;;5033369;28;20046;-88
2022/09/17 01:06:03;;;;;;;16.98;2.42;;;10.30;99.90;;;;;;5031674;28;20056;-87
2022/09/17 01:08:32;;;;;;;20.95;2.58;;;10.30;99.90;;;;;;5030475;28;20064;-87
2022/09/17 01:11:12;;;;;;;20.77;2.35;;;10.20;99.90;;;;;;5031947;28;20498;-87
2022/09/17 01:14:20;;;;;;;16.98;2.45;;;10.10;99.90;;;;;;5030086;28;20142;-88
2022/09/17 01:17:09;;;;;;;15.23;2.40;;;10.00;99.90;;;;;;5030391;28;20057;-88
2022/09/17 01:20:12;;;;;;;18.13;2.70;;;9.90;99.90;;;;;;5031893;28;20132;-88
2022/09/17 01:22:52;;;;;;;15.35;2.10;;;9.80;99.90;;;;;;5027400;28;20041;-87
2022/09/17 01:25:28;;;;;;;15.95;2.28;;;9.70;99.90;;;;;;5032006;28;20383;-87
2022/09/17 01:28:02;;;;;;;22.15;2.35;;;9.60;99.90;;;;;;5033054;28;20076;-87
2022/09/17 01:30:44;;;;;;;13.15;2.20;;;9.50;99.90;;;;;;5032121;28;20395;-87
2022/09/17 01:33:25;;;;;;;20.00;3.10;;;9.40;99.90;;;;;;5031106;28;20078;-87
2022/09/17 01:36:17;;;;;;;;;;;9.40;99.90;;;;;;5044670;28;20133;-87
2022/09/17 01:39:18;;;;;;;19.35;2.22;;;9.30;99.90;;;;;;5050821;28;20024;-88
2022/09/17 01:42:11;;;;;;;17.60;2.83;;;9.30;99.90;;;;;;5053150;28;20045;-85
2022/09/17 01:44:58;;;;;;;19.75;2.75;;;9.30;99.90;;;;;;5025398;28;20047;-88
2022/09/17 01:47:34;;;;;;;18.23;2.25;;;9.40;99.90;;;;;;5031050;28;20075;-88
2022/09/17 01:50:10;;;;;;;15.75;2.08;;;9.50;99.90;;;;;;5029445;28;20045;-88
2022/09/17 01:52:38;;;;;;;14.63;2.40;;;9.60;99.90;;;;;;5032453;28;20041;-86
2022/09/17 01:55:08;;;;;;;14.35;2.00;;;9.70;99.90;;;;;;5028288;28;20040;-88
2022/09/17 01:57:50;;;;;;;12.70;2.05;;;9.80;99.90;;;;;;5032263;28;20042;-87
2022/09/17 02:00:17;;;;;;;15.77;2.28;;;9.90;99.90;;;;;;5029709;28;20045;-88
2022/09/17 02:03:07;;;;;;;14.25;2.13;;;10.00;99.90;;;;;;5031499;28;20501;-86
2022/09/17 02:05:39;;;;;;;17.70;2.35;;;10.10;99.90;;;;;;5028313;28;20486;-85
2022/09/17 02:08:12;;;;;;;14.65;1.90;;;10.10;99.90;;;;;;5031055;28;20156;-86
2022/09/17 02:10:51;;;;;;;14.05;2.33;;;10.20;99.90;;;;;;5031854;28;20092;-90
2022/09/17 02:13:42;;;;;;;10.15;1.83;;;10.30;99.90;;;;;;5028973;28;20128;-88
2022/09/17 02:16:23;;;;;;;14.18;1.90;;;10.30;99.90;;;;;;5047636;28;20179;-86
2022/09/17 02:19:11;;;;;;;14.45;2.08;;;10.40;99.90;;;;;;5032565;28;20125;-85
2022/09/17 02:21:48;;;;;;;15.52;1.98;;;10.40;99.90;;;;;;5032036;28;20452;-86
2022/09/17 02:24:28;;;;;;;11.55;2.00;;;10.40;99.90;;;;;;5030602;28;20053;-88
2022/09/17 02:26:56;;;;;;;12.35;1.92;;;10.50;99.90;;;;;;5030241;28;20041;-88
2022/09/17 02:29:30;;;;;;;21.33;2.55;;;10.50;99.90;;;;;;5047265;28;20057;-87
2022/09/17 02:31:56;;;;;;;12.27;1.63;;;10.40;99.90;;;;;;5052406;28;20037;-88
2022/09/17 02:34:24;;;;;;;9.55;1.70;;;10.40;99.90;;;;;;5032056;28;20038;-88
2022/09/17 02:36:49;;;;;;;10.88;1.90;;;10.40;99.90;;;;;;5030285;28;20049;-87
2022/09/17 02:39:16;;;;;;;19.20;2.25;;;10.30;99.90;;;;;;5030419;28;20376;-86
2022/09/17 02:41:55;;;;;;;12.15;1.85;;;10.30;99.90;;;;;;5031131;28;20464;-87
2022/09/17 02:44:50;;;;;;;12.00;1.70;;;10.20;99.90;;;;;;5028286;28;20033;-88
2022/09/17 02:47:25;;;;;;;19.33;2.25;;;10.20;99.90;;;;;;5031807;28;20140;-89
2022/09/17 02:49:57;;;;;;;14.82;2.50;;;10.20;99.90;;;;;;5029830;28;20136;-88
2022/09/17 02:52:45;;;;;;;10.88;1.73;;;10.10;99.90;;;;;;5038196;28;20053;-89
2022/09/17 02:55:16;;;;;;;14.18;1.70;;;10.10;99.90;;;;;;5028556;28;20045;-89
2022/09/17 02:58:21;;;;;;;15.40;2.13;;;10.10;99.90;;;;;;5029689;28;20053;-87
2022/09/17 03:00:48;;;;;;;18.35;1.65;;;10.10;99.90;;;;;;5009456;28;20096;-91
2022/09/17 03:03:32;;;;;;;14.50;1.70;;;10.00;99.90;;;;;;5030411;28;20049;-87
2022/09/17 03:05:59;;;;;;;19.27;2.53;;;10.10;99.90;;;;;;5027622;28;20521;-86
2022/09/17 03:08:45;;;;;;;12.02;1.42;;;10.10;99.90;;;;;;5035494;28;20124;-87
2022/09/17 03:11:11;;;;;;;14.00;1.50;;;10.10;99.90;;;;;;5035405;28;20056;-88
2022/09/17 03:13:37;;;;;;;14.35;2.05;;;9.90;99.90;;;;;;5034399;28;20431;-87
2022/09/17 03:16:04;;;;;;;10.65;1.40;;;9.70;99.90;;;;;;5035078;28;20038;-85
2022/09/17 03:18:31;;;;;;;16.42;1.83;;;9.60;99.90;;;;;;5035221;28;20112;-86
2022/09/17 03:20:56;;;;;;;10.25;1.60;;;9.50;99.90;;;;;;5034935;28;21371;-87
2022/09/17 03:23:22;;;;;;;9.73;1.52;;;9.50;99.90;;;;;;5034485;28;20042;-86
2022/09/17 03:25:51;;;;;;;12.88;1.77;;;9.40;99.90;;;;;;5035069;28;20041;-87
2022/09/17 03:28:16;;;;;;;16.63;1.80;;;9.40;99.90;;;;;;5034458;28;20793;-88
2022/09/17 03:30:44;;;;;;;17.33;1.70;;;9.30;99.90;;;;;;5034566;28;20041;-87
2022/09/17 03:33:09;;;;;;;12.40;1.70;;;9.40;99.90;;;;;;5035186;28;20517;-87
2022/09/17 03:35:35;;;;;;;15.02;2.10;;;9.30;99.90;;;;;;5033602;28;20042;-87
2022/09/17 03:38:01;;;;;;;13.38;2.08;;;9.30;99.90;;;;;;5035208;28;20038;-86
2022/09/17 03:40:26;;;;;;;14.07;2.05;;;9.30;99.90;;;;;;5036196;28;20053;-88
2022/09/17 03:42:52;;;;;;;11.20;1.70;;;9.30;99.90;;;;;;5035122;28;20037;-87
2022/09/17 03:45:18;;;;;;;14.95;2.30;;;9.30;99.90;;;;;;5034417;28;20041;-87
2022/09/17 03:47:43;;;;;;;12.73;1.73;;;9.40;99.90;;;;;;5017700;28;20034;-88
2022/09/17 03:50:09;;;;;;;15.77;1.67;;;9.30;99.90;;;;;;5033851;28;20046;-87
2022/09/17 03:52:35;;;;;;;12.50;2.00;;;9.50;99.90;;;;;;5033991;28;20046;-88
2022/09/17 03:55:01;;;;;;;14.90;1.80;;;9.40;99.90;;;;;;5033874;28;20054;-88
2022/09/17 03:57:27;;;;;;;13.85;2.38;;;9.40;99.90;;;;;;5033552;28;20072;-88
2022/09/17 03:59:53;;;;;;;9.18;2.00;;;9.40;99.90;;;;;;5033684;28;20045;-87
2022/09/17 04:02:18;;;;;;;16.95;1.92;;;9.40;99.90;;;;;;5033340;28;20052;-87
2022/09/17 04:04:44;;;;;;;11.15;1.95;;;9.40;99.90;;;;;;5017107;28;20048;-89
2022/09/17 04:07:09;;;;;;;13.98;1.83;;;9.40;99.90;;;;;;5033031;28;20041;-87
2022/09/17 04:09:35;;;;;;;10.32;1.83;;;9.40;99.90;;;;;;5033291;28;20045;-87
2022/09/17 04:12:01;;;;;;;15.43;2.10;;;9.40;99.90;;;;;;5033660;28;20376;-87
2022/09/17 04:14:27;;;;;;;6.95;1.67;;;9.40;99.90;;;;;;5034484;28;20589;-89
2022/09/17 04:16:53;;;;;;;11.98;1.92;;;9.40;99.90;;;;;;5033546;28;20140;-88
2022/09/17 04:19:18;;;;;;;14.55;1.80;;;9.40;99.90;;;;;;5017626;28;20132;-89
2022/09/17 04:21:44;;;;;;;13.30;2.05;;;9.40;99.90;;;;;;5017384;28;20402;-89
2022/09/17 04:24:10;;;;;;;10.23;1.60;;;9.40;99.90;;;;;;5033037;28;20045;-88
2022/09/17 04:26:35;;;;;;;14.77;1.92;;;9.40;99.90;;;;;;5034093;28;20121;-89
2022/09/17 04:29:01;;;;;;;15.43;1.80;;;9.30;99.90;;;;;;5033334;28;20422;-88
2022/09/17 04:31:27;;;;;;;14.77;1.45;;;9.50;99.90;;;;;;5017133;28;20041;-89
2022/09/17 04:33:53;;;;;;;9.75;1.58;;;9.30;99.90;;;;;;5049682;28;20045;-89
2022/09/17 04:36:18;;;;;;;16.20;1.77;;;9.30;99.90;;;;;;5032987;28;20119;-90
2022/09/17 04:38:47;;;;;;;16.00;1.75;;;9.30;99.90;;;;;;5033123;28;20045;-89
2022/09/17 04:41:13;;;;;;;15.70;2.40;;;9.20;99.90;;;;;;5028146;28;20038;-89
2022/09/17 04:43:39;;;;;;;11.98;1.73;;;9.20;99.90;;;;;;5049298;28;20041;-88
2022/09/17 04:46:04;;;;;;;19.77;2.05;;;9.20;99.90;;;;;;5033049;28;20045;-89
2022/09/17 04:48:30;;;;;;;15.48;1.95;;;9.20;99.90;;;;;;5032897;28;20048;-89
2022/09/17 04:50:56;;;;;;;14.63;2.05;;;9.30;99.90;;;;;;5032933;28;20419;-86
2022/09/17 04:53:21;;;;;;;17.52;2.17;;;9.20;99.90;;;;;;5034189;28;20486;-89
2022/09/17 04:55:47;;;;;;;14.48;2.00;;;9.20;99.90;;;;;;5033932;28;20037;-88
2022/09/17 04:58:13;;;;;;;11.85;1.73;;;9.30;99.90;;;;;;5032516;28;20063;-89
2022/09/17 05:00:40;;;;;;;16.00;1.83;;;9.30;99.90;;;;;;5032971;28;20533;-87
2022/09/17 05:03:06;;;;;;;13.70;1.88;;;9.40;99.90;;;;;;5032314;28;20045;-88
2022/09/17 05:05:31;;;;;;;15.35;1.95;;;9.40;99.90;;;;;;5032192;28;20049;-88
2022/09/17 05:07:57;;;;;;;19.58;2.92;;;9.40;99.90;;;;;;5031945;28;20045;-86
2022/09/17 05:10:24;;;;;;;9.88;1.70;;;9.30;99.90;;;;;;5031792;28;20053;-90
2022/09/17 05:12:56;;;;;;;12.32;1.67;;;9.30;99.90;;;;;;5033276;28;20384;-90
2022/09/17 05:15:23;;;;;;;10.60;2.00;;;9.20;99.90;;;;;;5031650;28;20057;-86
2022/09/17 05:17:49;;;;;;;14.10;1.48;;;9.10;99.90;;;;;;5027994;28;20068;-93
2022/09/17 05:20:15;;;;;;;12.68;1.42;;;9.10;99.90;;;;;;5033422;28;20494;-87
2022/09/17 05:22:46;;;;;;;11.07;1.58;;;8.90;99.90;;;;;;5033388;28;20037;-91
2022/09/17 05:25:14;;;;;;;15.07;1.63;;;8.80;99.90;;;;;;5057666;28;20049;-89
2022/09/17 05:27:40;;;;;;;11.85;1.80;;;8.80;99.90;;;;;;5031946;28;20533;-89
2022/09/17 05:30:07;;;;;;;63.63;4.70;;;8.70;99.90;;;;;;5032617;28;20045;-89
2022/09/17 05:32:35;;;;;;;11.98;1.67;;;8.60;99.90;;;;;;5031492;28;20092;-90
2022/09/17 05:35:01;;;;;;;13.18;1.80;;;8.60;99.90;;;;;;5031791;28;20068;-88
2022/09/17 05:37:26;;;;;;;12.75;1.70;;;8.50;99.90;;;;;;5031388;28;20139;-89
2022/09/17 05:39:52;;;;;;;8.00;1.13;;;8.50;99.90;;;;;;5047517;28;20049;-87
2022/09/17 05:42:18;;;;;;;18.52;1.65;;;8.40;99.90;;;;;;5013782;28;20042;-89
2022/09/17 05:44:43;;;;;;;11.55;1.50;;;8.40;99.90;;;;;;5014577;28;20041;-90
2022/09/17 05:47:09;;;;;;;10.55;1.40;;;8.40;99.90;;;;;;5013644;28;20052;-88
2022/09/17 05:49:35;;;;;;;10.90;1.83;;;8.40;99.90;;;;;;5013842;28;20046;-88
2022/09/17 05:52:02;;;;;;;10.55;1.60;;;8.40;99.90;;;;;;5014226;28;20049;-90
2022/09/17 05:54:28;;;;;;;10.23;1.20;;;8.40;99.90;;;;;;5014621;28;20054;-88
2022/09/17 05:56:54;;;;;;;12.60;1.80;;;8.40;99.90;;;;;;5016036;28;20092;-89
2022/09/17 05:59:20;;;;;;;7.75;1.10;;;8.50;99.90;;;;;;5031954;28;20069;-89
2022/09/17 06:01:46;;;;;;;13.45;1.63;;;8.50;99.90;;;;;;5015678;28;20045;-90
2022/09/17 06:04:12;;;;;;;11.27;1.60;;;8.60;99.90;;;;;;5015206;28;20084;-89
2022/09/17 06:06:40;;;;;;;8.40;1.60;;;8.60;99.90;;;;;;5031297;28;20104;-89
2022/09/17 06:09:07;;;;;;;13.07;1.45;;;8.70;99.90;;;;;;5047563;28;20096;-87
2022/09/17 06:11:33;;;;;;;10.40;1.58;;;8.70;99.90;;;;;;5031203;28;20053;-88
2022/09/17 06:13:59;;;;;;;10.77;1.42;;;8.80;99.90;;;;;;5032446;28;20049;-87
2022/09/17 06:16:25;;;;;;;15.27;1.65;;;8.80;99.90;;;;;;5015074;28;21602;-88
2022/09/17 06:18:54;;;;;;;14.90;1.58;;;8.90;99.90;;;;;;5031222;28;20049;-91
2022/09/17 06:21:21;;;;;;;16.90;2.13;;;9.00;99.90;;;;;;5031150;28;20479;-90
2022/09/17 06:23:47;;;;;;;12.00;1.40;;;9.00;99.90;;;;;;5014722;28;20399;-88
2022/09/17 06:26:13;;;;;;;17.00;1.90;;;9.10;99.90;;;;;;5031235;28;20045;-89
2022/09/17 06:28:39;;;;;;;13.13;1.83;;;9.10;99.90;;;;;;5032563;28;20046;-88
2022/09/17 06:31:07;;;;;;;11.60;1.58;;;9.20;99.90;;;;;;5014430;28;20126;-90
2022/09/17 06:33:33;;;;;;;12.25;1.85;;;9.30;99.90;;;;;;5031124;28;20049;-89
2022/09/17 06:36:00;;;;;;;8.13;1.33;;;9.50;99.90;;;;;;5013938;28;20060;-88
2022/09/17 06:38:27;;;;;;;12.40;1.38;;;9.60;99.90;;;;;;5047291;28;20049;-87
2022/09/17 06:40:53;;;;;;;14.13;1.85;;;9.80;99.90;;;;;;5030323;28;20038;-90
2022/09/17 06:43:19;;;;;;;16.00;1.77;;;10.00;99.90;;;;;;5031185;28;20067;-92
2022/09/17 06:45:56;;;;;;;15.35;1.88;;;10.30;99.90;;;;;;5014105;28;20076;-89
2022/09/17 06:48:23;;;;;;;17.40;2.00;;;10.40;99.90;;;;;;5011355;28;20103;-89
2022/09/17 06:50:50;;;;;;;18.85;1.92;;;10.30;99.90;;;;;;5020910;28;20046;-90
2022/09/17 06:53:16;;;;;;;11.10;1.85;;;10.20;99.90;;;;;;5024159;28;20065;-85
2022/09/17 06:55:42;;;;;;;13.38;1.52;;;10.10;99.90;;;;;;5030604;28;20072;-89
2022/09/17 06:58:08;;;;;;;12.85;1.58;;;10.10;99.90;;;;;;5027878;28;20045;-90
2022/09/17 07:00:35;;;;;;;11.05;1.70;;;10.00;99.90;;;;;;5031760;28;20517;-90
2022/09/17 07:03:01;;;;;;;14.30;1.70;;;10.00;99.90;;;;;;5013161;28;20041;-90
2022/09/17 07:05:28;;;;;;;14.30;1.85;;;10.00;99.90;;;;;;5030566;28;20137;-88
2022/09/17 07:07:55;;;;;;;15.57;2.05;;;10.10;99.90;;;;;;5029029;28;20077;-88
2022/09/17 07:10:22;;;;;;;16.02;1.60;;;10.20;99.90;;;;;;5020458;28;20049;-88
2022/09/17 07:12:48;;;;;;;11.85;1.60;;;10.20;99.90;;;;;;5013638;28;20095;-88
2022/09/17 07:15:24;;;;;;;7.28;1.30;;;10.30;99.90;;;;;;5029141;28;20041;-89
2022/09/17 07:17:50;;;;;;;10.73;1.60;;;10.20;99.90;;;;;;5045592;28;20046;-85
2022/09/17 07:20:15;;;;;;;13.38;1.33;;;10.20;99.90;;;;;;4996827;28;20046;-87
2022/09/17 07:22:41;;;;;;;16.13;1.55;;;10.30;99.90;;;;;;5012442;28;20566;-84
2022/09/17 07:25:07;;;;;;;8.70;1.27;;;10.30;99.90;;;;;;4996246;28;20042;-89
2022/09/17 07:27:33;;;;;;;7.57;0.93;;;10.40;99.90;;;;;;5012533;28;20050;-91
2022/09/17 07:29:59;;;;;;;12.07;1.75;;;10.50;99.90;;;;;;5028857;28;20532;-88
2022/09/17 07:32:27;;;;;;;15.68;1.58;;;10.50;99.90;;;;;;4996297;28;20495;-91
2022/09/17 07:34:53;;;;;;;6.95;1.20;;;10.70;99.90;;;;;;5029107;28;20057;-92
2022/09/17 07:37:20;;;;;;;5.03;1.10;;;10.70;99.90;;;;;;5013061;28;20050;-88
2022/09/17 07:39:46;;;;;;;5.55;0.85;;;10.90;99.90;;;;;;5012631;28;20049;-87
2022/09/17 07:42:11;;;;;;;6.65;1.02;;;11.10;99.90;;;;;;5012741;28;20041;-88
2022/09/17 07:44:37;;;;;;;9.85;1.52;;;11.20;99.90;;;;;;5012508;28;20045;-92
2022/09/17 07:47:03;;;;;;;10.00;1.85;;;11.40;99.90;;;;;;5013490;28;20050;-90
2022/09/17 07:49:30;;;;;;;7.28;1.20;;;11.60;99.90;;;;;;5012803;28;20057;-90
2022/09/17 07:51:56;;;;;;;6.90;1.08;;;11.70;99.90;;;;;;4996657;28;20099;-90
2022/09/17 07:54:22;;;;;;;5.38;0.93;;;11.80;99.90;;;;;;5016332;28;20050;-84
2022/09/17 07:56:48;;;;;;;8.40;0.80;;;11.90;99.90;;;;;;5015934;28;20054;-87
2022/09/17 07:59:14;;;;;;;8.30;1.40;;;12.10;99.90;;;;;;5016600;28;20089;-89
2022/09/17 08:01:39;;;;;;;6.53;1.15;;;11.90;99.90;;;;;;5016961;28;20037;-91
2022/09/17 08:04:05;;;;;;;9.68;1.45;;;11.90;99.90;;;;;;4999701;28;20060;-90
2022/09/17 08:06:36;;;;;;;5.53;1.00;;;12.10;99.90;;;;;;5016750;28;20060;-85
2022/09/17 08:09:02;;;;;;;5.72;1.40;;;12.30;99.90;;;;;;5016925;28;20781;-88
2022/09/17 08:11:29;;;;;;;11.85;1.23;;;12.40;99.90;;;;;;5017223;28;20184;-89
2022/09/17 08:13:55;;;;;;;5.13;0.80;;;12.40;99.90;;;;;;5029161;28;20049;-90
2022/09/17 08:16:23;;;;;;;9.23;1.08;;;12.30;99.90;;;;;;5031086;28;20046;-91
2022/09/17 08:18:54;;;;;;;4.28;0.80;;;12.20;99.90;;;;;;5027657;28;20050;-89
2022/09/17 08:21:20;;;;;;;4.95;0.88;;;12.10;99.90;;;;;;5017306;28;20506;-87
2022/09/17 08:23:46;;;;;;;5.70;1.05;;;12.10;99.90;;;;;;5016769;28;20057;-87
2022/09/17 08:26:18;;;;;;;6.22;1.20;;;12.10;99.90;;;;;;5015655;28;20058;-90
2022/09/17 08:28:46;;;;;;;5.15;1.00;;;12.10;99.90;;;;;;5015505;28;20092;-92
2022/09/17 08:31:13;;;;;;;7.85;1.17;;;12.20;99.90;;;;;;5015379;28;20045;-89
2022/09/17 08:33:40;;;;;;;3.92;0.80;;;12.20;99.90;;;;;;5015684;28;20054;-91
2022/09/17 08:36:07;;;;;;;5.40;0.80;;;12.40;99.90;;;;;;5015150;28;20077;-90
2022/09/17 08:38:38;;;;;;;3.58;0.65;;;12.50;99.90;;;;;;5048103;28;20053;-87
2022/09/17 08:41:13;;;;;;;4.10;0.80;;;12.50;99.90;;;;;;5031969;28;20050;-89
2022/09/17 08:43:49;;;;;;;6.32;0.70;;;12.40;99.90;;;;;;5048064;28;20458;-88
2022/09/17 08:46:15;;;;;;;6.10;0.70;;;12.30;99.90;;;;;;5015126;28;20054;-90
2022/09/17 08:49:04;;;;;;;8.05;0.80;;;12.20;99.90;;;;;;4998940;28;20057;-88
2022/09/17 08:51:44;;;;;;;5.10;1.00;;;12.20;99.90;;;;;;5048254;28;20049;-88
2022/09/17 08:54:41;;;;;;;5.25;0.73;;;12.50;99.90;;;;;;5015012;28;20099;-90
2022/09/17 08:57:28;;;;;;;6.93;1.50;;;13.00;99.90;;;;;;5014704;28;20048;-87
2022/09/17 09:00:16;;;;;;;4.10;0.75;;;13.40;99.90;;;;;;5015792;28;20045;-86
2022/09/17 09:03:07;;;;;;;4.72;1.00;;;13.70;99.90;;;;;;5014693;28;20069;-89
2022/09/17 09:05:51;;;;;;;7.35;0.77;;;13.60;99.90;;;;;;5013207;28;20054;-87
2022/09/17 09:08:29;;;;;;;6.00;0.70;;;13.20;99.90;;;;;;5047464;28;20562;-89
2022/09/17 09:10:57;;;;;;;15.52;1.17;;;12.70;99.90;;;;;;5013903;28;20455;-87
2022/09/17 09:13:32;;;;;;;6.53;0.77;;;12.20;99.90;;;;;;5015279;28;20050;-82
2022/09/17 09:16:05;;;;;;;7.97;0.90;;;11.80;99.90;;;;;;5015353;28;20054;-83
2022/09/17 09:18:35;;;;;;;3.22;1.00;;;11.50;99.90;;;;;;5030744;28;20443;-85
2022/09/17 09:21:06;;;;;;;5.80;0.75;;;11.40;99.90;;;;;;5015466;28;20038;-88
2022/09/17 09:23:57;;;;;;;6.40;1.00;;;11.20;99.90;;;;;;5030949;28;20123;-86
2022/09/17 09:26:38;;;;;;;3.72;0.88;;;11.10;99.90;;;;;;5047179;28;20750;-85
2022/09/17 09:29:07;;;;;;;;;;;11.20;99.90;;;;;;5033765;28;20042;-85
2022/09/17 09:31:43;;;;;;;4.15;0.80;;;11.50;99.90;;;;;;5050367;28;19948;-90
2022/09/17 09:34:11;;;;;;;2.45;0.57;;;11.90;99.90;;;;;;5017434;28;20077;-86
2022/09/17 09:36:38;;;;;;;5.07;1.02;;;12.30;99.90;;;;;;5013381;28;20084;-91
2022/09/17 09:39:27;;;;;;;3.75;0.80;;;12.30;99.90;;;;;;5014128;28;20053;-87
2022/09/17 09:42:22;;;;;;;6.53;0.73;;;12.50;99.90;;;;;;5014679;28;20057;-92
2022/09/17 09:44:48;;;;;;;4.80;0.80;;;13.00;99.90;;;;;;5013844;28;20104;-89
2022/09/17 09:47:19;;;;;;;10.23;1.00;;;13.60;99.90;;;;;;4998112;28;20439;-91
2022/09/17 09:49:57;;;;;;;9.05;1.00;;;13.50;99.90;;;;;;5030078;28;20046;-86
2022/09/17 09:52:44;;;;;;;19.13;1.02;;;13.10;99.90;;;;;;5013425;28;20050;-86
2022/09/17 09:55:38;;;;;;;3.20;0.68;;;12.50;99.90;;;;;;5046600;28;20104;-83
2022/09/17 09:58:08;;;;;;;6.38;0.70;;;11.90;99.90;;;;;;5030094;28;20053;-87
2022/09/17 10:00:37;;;;;;;10.73;1.17;;;11.40;99.90;;;;;;5014452;28;20068;-85
2022/09/17 10:03:12;;;;;;;7.55;0.85;;;11.20;99.90;;;;;;5015211;28;20372;-87
2022/09/17 10:05:39;;;;;;;11.05;1.20;;;11.20;99.90;;;;;;5014945;28;20053;-89
2022/09/17 10:08:12;;;;;;;5.10;1.00;;;11.70;99.90;;;;;;5017030;28;20050;-84
2022/09/17 10:10:53;;;;;;;8.73;1.10;;;12.50;99.90;;;;;;5029638;28;20054;-87
2022/09/17 10:13:19;;;;;;;9.77;1.25;;;13.30;99.90;;;;;;5030800;28;20058;-86
2022/09/17 10:15:45;;;;;;;6.45;0.73;;;13.30;99.90;;;;;;5014595;28;20068;-87
2022/09/17 10:18:16;;;;;;;5.57;0.75;;;12.90;99.90;;;;;;5014775;28;20085;-87
2022/09/17 10:20:52;;;;;;;9.93;1.15;;;12.70;99.90;;;;;;5013459;28;20434;-88
2022/09/17 10:23:19;;;;;;;10.73;1.20;;;12.70;99.90;;;;;;5046642;28;20050;-88
2022/09/17 10:25:46;;;;;;;6.03;1.08;;;12.90;99.90;;;;;;5030197;28;20045;-89
2022/09/17 10:28:42;;;;;;;10.63;1.25;;;13.10;99.90;;;;;;4997552;28;20129;-89
2022/09/17 10:31:09;;;;;;;7.93;1.05;;;13.10;99.90;;;;;;5014025;28;20049;-87
2022/09/17 10:33:57;;;;;;;7.55;1.30;;;13.20;99.90;;;;;;4997633;28;20050;-89
2022/09/17 10:36:42;;;;;;;4.28;0.80;;;13.10;99.90;;;;;;5014286;28;20531;-85
2022/09/17 10:39:25;;;;;;;9.80;1.38;;;13.00;99.90;;;;;;5016711;28;20045;-88
2022/09/17 10:42:00;;;;;;;10.27;1.05;;;13.00;99.90;;;;;;5015228;28;20042;-87
2022/09/17 10:44:32;;;;;;;5.93;1.13;;;12.80;99.90;;;;;;5016293;28;20502;-87
2022/09/17 10:47:10;;;;;;;8.45;0.80;;;12.60;99.90;;;;;;5046793;28;20514;-85
2022/09/17 10:49:52;;;;;;;9.18;1.90;;;12.10;99.90;;;;;;5013526;28;20443;-85
2022/09/17 10:52:42;;;;;;;6.72;1.13;;;11.90;99.90;;;;;;5014419;28;20050;-85
2022/09/17 10:55:28;;;;;;;5.28;0.75;;;11.70;99.90;;;;;;5013659;28;20084;-87
2022/09/17 10:58:06;;;;;;;2.95;0.60;;;11.40;99.90;;;;;;5014607;28;20192;-85
2022/09/17 11:01:09;;;;;;;12.48;1.20;;;11.30;99.90;;;;;;5045922;28;20056;-86
2022/09/17 11:03:41;;;;;;;3.63;0.63;;;12.00;99.90;;;;;;5029545;28;20056;-88
2022/09/17 11:06:57;;;;;;;5.85;0.82;;;12.90;99.90;;;;;;5012816;28;20041;-87
2022/09/17 11:09:52;;;;;;;6.18;0.82;;;13.60;99.90;;;;;;5020894;28;20053;-89
2022/09/17 11:12:24;;;;;;;6.07;1.00;;;14.10;99.90;;;;;;5028522;28;20054;-90
2022/09/17 11:14:52;;;;;;;3.08;0.60;;;14.40;99.90;;;;;;5012961;28;20119;-85
2022/09/17 11:17:43;;;;;;;5.82;0.90;;;14.90;99.90;;;;;;5014117;28;20056;-89
2022/09/17 11:20:49;;;;;;;7.77;0.90;;;15.30;99.90;;;;;;5013354;28;20174;-86
2022/09/17 11:23:29;;;;;;;8.48;1.10;;;15.70;99.90;;;;;;5032715;28;20085;-88
2022/09/17 11:26:11;;;;;;;3.55;0.73;;;15.80;99.90;;;;;;5017821;28;20164;-86
2022/09/17 11:28:58;;;;;;;5.65;0.75;;;16.00;99.90;;;;;;5050196;28;20484;-88
2022/09/17 11:31:51;;;;;;;4.18;1.55;;;16.00;99.90;;;;;;5019376;28;20053;-86
2022/09/17 11:34:46;;;;;;;16.02;1.50;;;15.90;99.90;;;;;;5019578;28;20107;-88
2022/09/17 11:37:28;;;;;;;4.80;0.68;;;16.30;99.90;;;;;;5019329;28;20399;-87
2022/09/17 11:40:37;;;;;;;11.32;1.63;;;16.40;99.90;;;;;;5001136;28;20096;-86
2022/09/17 11:43:26;;;;;;;5.65;0.80;;;16.60;99.90;;;;;;5052856;28;20037;-88
2022/09/17 11:46:16;;;;;;;2.90;0.55;;;16.70;99.90;;;;;;5018539;28;20164;-87
2022/09/17 11:48:53;;;;;;;2.35;0.60;;;16.10;99.90;;;;;;5016268;28;20042;-86
2022/09/17 11:51:33;;;;;;;4.82;0.80;;;15.20;99.90;;;;;;5017082;28;20080;-86
2022/09/17 11:54:26;;;;;;;2.28;0.30;;;14.40;99.90;;;;;;5017035;28;20062;-89
2022/09/17 11:57:02;;;;;;;3.25;0.57;;;13.70;99.90;;;;;;5017040;28;20463;-91
2022/09/17 11:59:30;;;;;;;3.30;0.57;;;13.80;99.90;;;;;;5015890;28;20487;-86
2022/09/17 12:02:09;;;;;;;3.83;0.60;;;14.00;99.90;;;;;;5016625;28;20072;-87
2022/09/17 12:04:56;;;;;;;3.70;0.50;;;14.10;99.90;;;;;;5016803;28;20476;-86
2022/09/17 12:07:28;;;;;;;6.05;0.65;;;13.80;99.90;;;;;;5017183;28;20041;-89
2022/09/17 12:10:08;;;;;;;4.38;0.60;;;13.90;99.90;;;;;;5049056;28;20064;-88
2022/09/17 12:12:41;;;;;;;3.05;0.90;;;14.30;99.90;;;;;;5015874;28;20054;-89
2022/09/17 12:15:18;;;;;;;3.70;0.63;;;14.80;99.90;;;;;;5016547;28;20041;-87
2022/09/17 12:18:09;;;;;;;4.78;1.00;;;15.10;99.90;;;;;;5017322;28;20050;-86
2022/09/17 12:20:37;;;;;;;12.88;1.58;;;15.00;99.90;;;;;;5016153;28;20064;-88
2022/09/17 12:23:10;;;;;;;5.28;0.85;;;14.70;99.90;;;;;;5015699;28;20065;-86
2022/09/17 12:25:59;;;;;;;4.03;0.70;;;14.40;99.90;;;;;;5048844;28;20042;-92
2022/09/17 12:28:34;;;;;;;5.65;0.82;;;14.40;99.90;;;;;;5015306;28;20065;-87
2022/09/17 12:31:12;;;;;;;13.43;1.65;;;14.70;99.90;;;;;;5016664;28;20040;-87
2022/09/17 12:33:46;;;;;;;4.57;0.95;;;15.00;99.90;;;;;;5017689;28;20050;-87
2022/09/17 12:36:15;;;;;;;6.55;1.92;;;15.00;99.90;;;;;;5017083;28;20041;-85
2022/09/17 12:38:46;;;;;;;10.05;2.00;;;15.10;99.90;;;;;;5036294;28;20046;-88
2022/09/17 12:41:40;;;;;;;4.35;1.02;;;15.30;99.90;;;;;;5016641;28;20108;-86
2022/09/17 12:44:40;;;;;;;7.72;1.20;;;15.50;99.90;;;;;;5015459;28;20050;-88
2022/09/17 12:47:17;;;;;;;10.18;1.27;;;15.90;99.90;;;;;;5015761;28;20056;-86
2022/09/17 12:50:01;;;;;;;10.90;1.27;;;16.20;99.90;;;;;;5015289;28;20053;-92
2022/09/17 12:52:51;;;;;;;10.77;1.63;;;16.40;99.90;;;;;;5015519;28;20038;-89
2022/09/17 12:55:24;;;;;;;11.80;1.88;;;16.40;99.90;;;;;;5014768;28;20058;-86
2022/09/17 12:58:07;;;;;;;12.90;2.00;;;16.30;99.90;;;;;;5031744;28;20053;-93
2022/09/17 13:00:40;;;;;;;12.95;1.67;;;16.00;99.90;;;;;;5014955;28;20089;-89
2022/09/17 13:03:15;;;;;;;11.07;1.90;;;16.00;99.90;;;;;;5032317;28;20128;-92
2022/09/17 13:05:44;;;;;;;14.13;1.98;;;16.10;99.90;;;;;;5031524;28;20056;-89
2022/09/17 13:08:15;;;;;;;14.93;1.92;;;16.10;99.90;;;;;;5031099;28;20103;-86
2022/09/17 13:11:09;;;;;;;11.95;1.90;;;16.30;99.90;;;;;;5015200;28;20060;-88
2022/09/17 13:14:01;;;;;;;15.07;2.58;;;16.50;99.90;;;;;;5015188;28;20522;-88
2022/09/17 13:16:36;;;;;;;14.27;2.05;;;16.50;99.90;;;;;;5047710;28;20058;-84